Kalona, Iowa
Current Conditions -  °F | °C
As of 7:52 PM on Thursday 20 Nov 2014 (Local Time) from KIOW Reporting Station
Clear Clear  
Wind Chill:   Ceiling: Unl
Heat Index: 16°   Visibility: 10mi
Dew Point:   Wind: 5mph
Humidity: 74%   Direction: 320°NW
Pressure: 30.3"   Gusts: NA
Location:  41.48°N, 91.71°W
Report Text: KIOW 210152Z AUTO 32004KT 10SM CLR M09/M13 A3030 RMK AO2 SLP271 T10891128
Loading
Personal Weather Stations






























Interactive Weather Map New forecast layout! Learn more

10-Day Weather Forecast

Advertisements
Track Severe Weather on mobile